< Cyclone 195603 1956 Season Cyclone 195606 >
Cyclone 195605 (unnamed)
General InformationTrack Information on Google Maps || ResourceGoogle EarthGE AnimationAtom FeedGeoJSON
Detalied Best Track (Time Zone = UTC)
Year Month Day Hour Lat. Long. Pressure (hPa) Wind (kt) Class Image Chart
1956 1 15 23 -14.9 140.0 1000 0 0 -- --
1956 1 16 22 -17.4 139.7 997 0 0 -- --
1956 1 16 23 -17.5 139.8 994 0 0 -- --
1956 1 17 23 -17.4 140.5 998 0 0 -- --
1956 1 18 05 -17.4 140.8 996 0 0 -- --
1956 1 18 23 -17.5 141.4 994 0 0 -- --
1956 1 19 05 -18.0 142.1 992 0 0 -- --
1956 1 19 17 -17.7 143.2 995 0 0 -- --
1956 1 19 23 -19.7 146.5 997 0 0 -- --
1956 1 20 02 -20.1 147.5 996 0 0 -- --
1956 1 20 08 -19.9 147.3 999 0 0 -- --
1956 1 20 11 -20.0 148.3 1002 0 0 -- --
1956 1 20 15 -20.0 148.4 1000 0 0 -- --
1956 1 20 17 -18.9 149.0 1000 0 0 -- --
1956 1 20 23 -18.9 150.0 1000 0 0 -- --
1956 1 21 02 -18.4 150.0 1000 0 0 -- --
1956 1 21 05 -17.9 151.0 1000 0 0 -- --
1956 1 21 11 -17.9 151.0 1001 0 0 -- --
1956 1 21 23 -18.9 152.0 1002 0 0 -- --
1956 1 22 05 -19.0 151.3 1000 0 0 -- --
1956 1 22 17 -17.9 149.5 1000 0 0 -- --
1956 1 22 23 -17.4 149.4 1000 0 0 -- --
1956 1 23 05 -16.9 149.5 998 0 0 -- --
1956 1 23 11 -16.4 150.1 998 0 0 -- --
1956 1 23 23 -17.1 151.5 998 0 0 -- --
1956 1 24 23 -19.4 154.2 986 0 0 -- --
1956 1 25 06 -19.9 154.7 977 0 0 -- --
1956 1 25 23 -22.1 157.0 968 0 0 -- --
1956 1 26 23 -26.4 161.0 1000 0 0 -- --
1956 1 27 23 -29.8 160.2 996 0 0 -- --
< Cyclone 195603 1956 Season Cyclone 195606 >

Help